CheckWX is a tool to help pilots better visualize weather data.  It is not intended as a substitute for an official pre-flight weather briefing.

13:08:05 UTC

CYBC TAF
Baie Comeau Airport
Baie-Comeau, Canada
TAF CYBC 210738Z 2108/2120 04005KT P6SM OVC020 TEMPO 2108/2120 OVC030 BECMG 2116/2118 19005KT RMK FCST BASED ON AUTO OBS. NXT FCST BY 211400Z

Nov-21@
08:00 UTC

Nov-21 @ 08:00 UTC

Nov-21@
16:00 UTC

Nov-21 @ 16:00 UTC

TAF CYBC 210738Z 2108/2120 04005KT P6SM OVC020
Wind
  • 040° at 5 KTS
Cloud Levels
  • Overcast at 2,000' AGL

Nov-21@
08:00 UTC

Nov-21 @ 08:00 UTC

Nov-21@
20:00 UTC

Nov-21 @ 20:00 UTC

TEMPO 2108/2120 OVC030

Temporary

Temporary Changes expected for less than half the time period

Cloud Levels
  • Overcast at 3,000' AGL

Nov-21@
16:00 UTC

Nov-21 @ 16:00 UTC

Nov-21@
20:00 UTC

Nov-21 @ 20:00 UTC

BECMG 2116/2118 19005KT RMK FCST BASED ON AUTO OBS. NXT FCST BY 211400Z

Becoming

Becoming Conditions expected by Thu, Nov 21, 2019 @ 18:00 UTC

Wind
  • 190° at 5 KTS
Cloud Levels
  • Overcast at 2,000' AGL